Terminal Aerodrome Forecast
Issued by NWS Riverton, WY

Home | Current Version | Previous Version | Text Only | Print | Product List | Glossary On
Versions: 1 2 3 4 5 6 7 8 9 10 11 12
000
FTUS45 KRIW 260500
TAFRIW
TAF
KRIW 260521Z 2606/2706 20010KT P6SM BKN200 WS020/25035KT
     FM261100 VRB06KT P6SM BKN200
     FM261900 26013G23KT P6SM FEW140 BKN200
     FM270000 29015G25KT P6SM SCT080=

USA.gov is the U.S. government's official web portal to all federal, state and local government web resources and services.